Time;durP1;ratioP1;P1;durP2;ratioP2;P2;SDS_P1;SDS_P2;PMS_P1;PMS_P2;Temp;Humidity;BMP_temperature;BMP_pressure;BME280_temperature;BME280_humidity;BME280_pressure;Samples;Min_cycle;Max_cycle;Signal;HPM_P1;HPM_P2
2021/06/27 00:01:34;;;;;;;35.42;29.85;;;21.20;99.90;;;;;;5055293;28;20032;-75
2021/06/27 00:03:59;;;;;;;38.45;34.25;;;21.20;99.90;;;;;;5065279;28;20025;-75
2021/06/27 00:06:25;;;;;;;37.20;31.33;;;21.10;99.90;;;;;;5053845;28;20032;-75
2021/06/27 00:08:51;;;;;;;36.53;31.10;;;21.10;99.90;;;;;;5066240;28;20036;-75
2021/06/27 00:11:18;;;;;;;40.78;32.30;;;21.00;99.90;;;;;;5065292;28;20082;-75
2021/06/27 00:13:47;;;;;;;35.78;29.98;;;21.10;99.90;;;;;;5053918;28;20107;-75
2021/06/27 00:16:13;;;;;;;35.42;31.30;;;21.00;99.90;;;;;;5057273;28;20133;-76
2021/06/27 00:18:39;;;;;;;34.00;30.13;;;21.00;99.90;;;;;;5063347;28;20028;-76
2021/06/27 00:21:09;;;;;;;37.25;30.02;;;20.90;99.90;;;;;;5057286;28;20268;-76
2021/06/27 00:23:38;;;;;;;38.78;30.42;;;20.90;99.90;;;;;;5074497;28;20021;-76
2021/06/27 00:26:06;;;;;;;38.65;33.15;;;20.90;99.90;;;;;;5056421;28;20028;-76
2021/06/27 00:28:31;;;;;;;36.05;32.15;;;20.90;99.90;;;;;;5062929;28;20473;-76
2021/06/27 00:30:59;;;;;;;36.88;31.75;;;20.80;99.90;;;;;;5069485;28;20039;-75
2021/06/27 00:33:26;;;;;;;37.67;31.45;;;20.80;99.90;;;;;;5068215;28;20028;-75
2021/06/27 00:35:52;;;;;;;34.83;30.15;;;20.80;99.90;;;;;;5065196;28;20036;-75
2021/06/27 00:38:18;;;;;;;38.50;30.77;;;20.80;99.90;;;;;;5067909;28;20024;-75
2021/06/27 00:40:44;;;;;;;38.17;32.05;;;20.70;99.90;;;;;;5063622;28;20373;-75
2021/06/27 00:43:10;;;;;;;39.35;31.52;;;20.70;99.90;;;;;;5065321;28;20393;-75
2021/06/27 00:45:37;;;;;;;38.60;31.08;;;20.70;99.90;;;;;;5071786;28;20027;-75
2021/06/27 00:48:05;;;;;;;36.38;32.15;;;20.70;99.90;;;;;;5065988;28;20064;-75
2021/06/27 00:50:36;;;;;;;39.30;32.65;;;20.60;99.90;;;;;;5058399;28;20025;-75
2021/06/27 00:53:02;;;;;;;39.20;31.20;;;20.50;99.90;;;;;;5063554;28;20546;-75
2021/06/27 00:55:28;;;;;;;38.45;32.15;;;20.50;99.90;;;;;;5068106;28;20025;-75
2021/06/27 00:57:54;;;;;;;34.22;28.20;;;20.50;99.90;;;;;;5072273;28;20042;-75
2021/06/27 01:00:24;;;;;;;33.13;28.90;;;20.50;99.90;;;;;;5056771;28;20049;-75
2021/06/27 01:02:50;;;;;;;32.92;28.20;;;20.40;99.90;;;;;;5068005;28;20051;-75
2021/06/27 01:05:22;;;;;;;34.53;28.52;;;20.40;99.90;;;;;;5069206;28;20055;-75
2021/06/27 01:07:47;;;;;;;31.53;26.40;;;20.40;99.90;;;;;;5080732;28;20033;-75
2021/06/27 01:10:14;;;;;;;34.45;29.60;;;20.40;99.90;;;;;;5070901;28;20267;-75
2021/06/27 01:12:40;;;;;;;36.28;31.15;;;20.30;99.90;;;;;;5062949;28;20021;-75
2021/06/27 01:15:08;;;;;;;37.78;31.02;;;20.30;99.90;;;;;;5072901;28;20021;-75
2021/06/27 01:17:37;;;;;;;35.00;30.55;;;20.30;99.90;;;;;;5068878;28;20491;-75
2021/06/27 01:20:06;;;;;;;37.75;30.15;;;20.30;99.90;;;;;;5065726;28;20071;-75
2021/06/27 01:22:32;;;;;;;33.92;29.95;;;20.20;99.90;;;;;;5074375;28;20458;-75
2021/06/27 01:24:57;;;;;;;37.70;32.13;;;20.20;99.90;;;;;;5065774;28;20021;-75
2021/06/27 01:27:23;;;;;;;39.92;29.55;;;20.20;99.90;;;;;;5070396;28;20344;-75
2021/06/27 01:29:49;;;;;;;38.92;31.45;;;20.20;99.90;;;;;;5057437;28;20074;-75
2021/06/27 01:32:14;;;;;;;38.35;32.72;;;20.10;99.90;;;;;;5064876;28;20047;-76
2021/06/27 01:34:43;;;;;;;42.55;34.00;;;20.10;99.90;;;;;;5062545;28;20495;-75
2021/06/27 01:37:09;;;;;;;43.92;35.60;;;20.10;99.90;;;;;;5062046;28;20025;-75
2021/06/27 01:39:37;;;;;;;42.63;34.63;;;20.10;99.90;;;;;;5067197;28;20024;-75
2021/06/27 01:42:03;;;;;;;42.80;33.13;;;20.00;99.90;;;;;;5058472;28;20115;-75
2021/06/27 01:44:29;;;;;;;38.20;32.53;;;20.00;99.90;;;;;;5060523;28;20055;-76
2021/06/27 01:46:56;;;;;;;42.72;32.95;;;20.00;99.90;;;;;;5062925;28;20109;-75
2021/06/27 01:49:22;;;;;;;45.03;35.60;;;20.00;99.90;;;;;;5065367;28;20013;-75
2021/06/27 01:51:49;;;;;;;38.47;32.75;;;20.00;99.90;;;;;;5076832;28;20034;-75
2021/06/27 01:54:14;;;;;;;35.70;29.42;;;19.90;99.90;;;;;;5058014;28;20128;-75
2021/06/27 01:56:40;;;;;;;36.22;30.30;;;19.90;99.90;;;;;;5064192;28;20100;-76
2021/06/27 01:59:06;;;;;;;38.75;30.48;;;19.80;99.90;;;;;;5070798;28;20040;-75
2021/06/27 02:01:35;;;;;;;37.75;30.27;;;19.90;99.90;;;;;;5057746;28;20064;-75
2021/06/27 02:04:02;;;;;;;40.53;31.95;;;19.80;99.90;;;;;;5057628;28;20024;-75
2021/06/27 02:06:29;;;;;;;39.00;31.73;;;19.80;99.90;;;;;;5059456;28;20052;-75
2021/06/27 02:08:58;;;;;;;39.97;32.55;;;19.80;99.90;;;;;;5060333;28;20108;-75
2021/06/27 02:11:25;;;;;;;38.20;32.63;;;19.70;99.90;;;;;;5064121;28;20097;-75
2021/06/27 02:13:52;;;;;;;40.72;32.95;;;19.70;99.90;;;;;;5068960;28;20473;-75
2021/06/27 02:16:18;;;;;;;33.42;29.23;;;19.60;99.90;;;;;;5061377;28;20469;-75
2021/06/27 02:18:49;;;;;;;35.65;28.35;;;19.60;99.90;;;;;;5059664;28;20032;-76
2021/06/27 02:21:22;;;;;;;38.08;27.80;;;19.60;99.90;;;;;;5066421;28;20025;-75
2021/06/27 02:23:49;;;;;;;33.65;28.40;;;19.60;99.90;;;;;;5062963;28;20033;-75
2021/06/27 02:26:16;;;;;;;38.10;28.80;;;19.60;99.90;;;;;;5056711;28;20040;-75
2021/06/27 02:28:42;;;;;;;37.17;30.65;;;19.60;99.90;;;;;;5065773;28;20021;-75
2021/06/27 02:31:08;;;;;;;39.20;31.52;;;19.60;99.90;;;;;;5053242;28;20039;-76
2021/06/27 02:33:34;;;;;;;41.60;33.13;;;19.50;99.90;;;;;;5060497;28;20030;-75
2021/06/27 02:36:00;;;;;;;37.42;33.15;;;19.50;99.90;;;;;;5054682;28;20087;-75
2021/06/27 02:38:26;;;;;;;40.97;32.80;;;19.50;99.90;;;;;;5061629;28;20104;-75
2021/06/27 02:40:54;;;;;;;39.63;31.67;;;19.50;99.90;;;;;;5065265;28;20573;-75
2021/06/27 02:43:19;;;;;;;41.75;33.63;;;19.40;99.90;;;;;;5061116;28;20028;-75
2021/06/27 02:45:46;;;;;;;43.65;32.72;;;19.40;99.90;;;;;;5056429;28;20016;-76
2021/06/27 02:48:12;;;;;;;48.38;36.78;;;19.40;99.90;;;;;;5057623;28;20113;-74
2021/06/27 02:50:39;;;;;;;43.10;35.13;;;19.40;99.90;;;;;;5065921;28;20112;-74
2021/06/27 02:53:06;;;;;;;44.97;35.75;;;19.30;99.90;;;;;;5059426;28;20029;-76
2021/06/27 02:55:31;;;;;;;47.28;36.45;;;19.30;99.90;;;;;;5056725;28;20111;-76
2021/06/27 02:57:57;;;;;;;44.70;35.85;;;19.30;99.90;;;;;;5060991;28;20096;-76
2021/06/27 03:00:23;;;;;;;44.38;35.55;;;19.30;99.90;;;;;;5068240;28;20033;-76
2021/06/27 03:02:49;;;;;;;43.72;33.63;;;19.30;99.90;;;;;;5053239;28;20029;-75
2021/06/27 03:05:16;;;;;;;39.60;30.63;;;19.20;99.90;;;;;;5056150;28;20041;-75
2021/06/27 03:07:43;;;;;;;36.30;29.48;;;19.20;99.90;;;;;;5065717;28;20064;-75
2021/06/27 03:10:14;;;;;;;40.25;30.40;;;19.20;99.90;;;;;;5067212;28;20025;-76
2021/06/27 03:12:41;;;;;;;38.80;30.08;;;19.20;99.90;;;;;;5064628;28;20082;-75
2021/06/27 03:15:07;;;;;;;37.38;31.48;;;19.20;99.90;;;;;;5062923;28;20025;-76
2021/06/27 03:17:33;;;;;;;43.70;35.42;;;19.30;99.90;;;;;;5055906;28;20020;-76
2021/06/27 03:19:59;;;;;;;43.33;36.10;;;19.30;99.90;;;;;;5063166;28;20481;-76
2021/06/27 03:22:24;;;;;;;43.78;35.45;;;19.30;99.90;;;;;;5060372;28;20107;-76
2021/06/27 03:24:50;;;;;;;39.60;31.27;;;19.30;99.90;;;;;;5054555;28;20066;-76
2021/06/27 03:27:15;;;;;;;40.22;30.65;;;19.20;99.90;;;;;;5061004;28;20043;-76
2021/06/27 03:29:41;;;;;;;38.25;31.80;;;19.20;99.90;;;;;;5051915;28;20033;-76
2021/06/27 03:32:07;;;;;;;32.65;28.60;;;19.20;99.90;;;;;;5062790;28;20508;-76
2021/06/27 03:34:33;;;;;;;33.13;29.35;;;19.20;99.90;;;;;;5063480;28;20033;-76
2021/06/27 03:36:58;;;;;;;36.10;29.40;;;19.20;99.90;;;;;;5049570;28;20466;-76
2021/06/27 03:39:24;;;;;;;38.22;31.75;;;19.30;99.90;;;;;;5057291;28;20425;-76
2021/06/27 03:41:53;;;;;;;35.85;30.73;;;19.20;99.90;;;;;;5059961;28;20028;-76
2021/06/27 03:44:20;;;;;;;37.72;31.52;;;19.20;99.90;;;;;;5058586;28;20460;-76
2021/06/27 03:46:45;;;;;;;34.72;30.63;;;19.20;99.90;;;;;;5059859;28;20032;-76
2021/06/27 03:49:11;;;;;;;38.10;31.73;;;19.20;99.90;;;;;;5055340;28;20699;-76
2021/06/27 03:51:37;;;;;;;38.60;29.40;;;19.20;99.90;;;;;;5065881;28;20497;-76
2021/06/27 03:54:03;;;;;;;37.75;31.40;;;19.30;99.90;;;;;;5063881;28;20033;-76
2021/06/27 03:56:29;;;;;;;41.28;32.85;;;19.30;99.90;;;;;;5055215;28;20029;-76
2021/06/27 03:58:54;;;;;;;36.47;29.75;;;19.40;99.90;;;;;;5059478;28;20024;-76
2021/06/27 04:01:21;;;;;;;34.95;30.23;;;19.30;99.90;;;;;;5066050;28;20028;-77
2021/06/27 04:03:46;;;;;;;34.45;28.85;;;19.30;99.90;;;;;;5055702;28;20055;-76
2021/06/27 04:06:12;;;;;;;37.13;28.85;;;19.40;99.90;;;;;;5061651;28;20068;-76
2021/06/27 04:08:37;;;;;;;38.85;28.70;;;19.40;99.90;;;;;;5067876;28;20021;-75
2021/06/27 04:11:03;;;;;;;38.53;31.10;;;19.40;99.90;;;;;;5059198;28;20485;-76
2021/06/27 04:13:31;;;;;;;37.30;31.48;;;19.40;99.90;;;;;;5056944;28;20035;-76
2021/06/27 04:16:00;;;;;;;36.33;31.33;;;19.40;99.90;;;;;;5061821;28;20366;-77
2021/06/27 04:18:26;;;;;;;32.65;27.27;;;19.40;99.90;;;;;;5064010;28;20028;-76
2021/06/27 04:20:53;;;;;;;36.22;31.67;;;19.40;99.90;;;;;;5055926;28;20036;-76
2021/06/27 04:23:19;;;;;;;37.22;30.35;;;19.40;99.90;;;;;;5061147;28;20028;-76
2021/06/27 04:25:45;;;;;;;39.60;30.73;;;19.50;99.90;;;;;;5066673;28;20373;-76
2021/06/27 04:28:10;;;;;;;37.33;29.23;;;19.50;99.90;;;;;;5055358;28;20029;-76
2021/06/27 04:30:37;;;;;;;40.72;30.65;;;19.50;99.90;;;;;;5062563;28;20024;-76
2021/06/27 04:33:04;;;;;;;39.97;33.60;;;19.50;99.90;;;;;;5053562;28;20024;-75
2021/06/27 04:35:32;;;;;;;42.97;32.53;;;19.50;99.90;;;;;;5059941;28;20056;-75
2021/06/27 04:37:58;;;;;;;39.17;33.03;;;19.50;99.90;;;;;;5063581;28;20028;-76
2021/06/27 04:40:23;;;;;;;40.88;33.15;;;19.50;99.90;;;;;;5054376;28;20075;-76
2021/06/27 04:42:49;;;;;;;41.28;31.77;;;19.50;99.90;;;;;;5062308;28;20032;-75
2021/06/27 04:45:14;;;;;;;43.00;32.65;;;19.50;99.90;;;;;;5064944;28;20021;-75
2021/06/27 04:47:40;;;;;;;38.95;29.88;;;19.50;99.90;;;;;;5055592;28;20033;-76
2021/06/27 04:50:06;;;;;;;39.40;31.60;;;19.50;99.90;;;;;;5058663;28;20017;-75
2021/06/27 04:52:35;;;;;;;39.10;31.02;;;19.50;99.90;;;;;;5059503;28;20056;-75
2021/06/27 04:55:05;;;;;;;38.28;30.13;;;19.60;99.90;;;;;;5056171;28;20021;-75
2021/06/27 04:57:32;;;;;;;36.42;29.80;;;19.60;99.90;;;;;;5064596;28;20586;-75
2021/06/27 04:59:57;;;;;;;37.58;29.25;;;19.60;99.90;;;;;;5065375;28;20070;-76
2021/06/27 05:02:23;;;;;;;41.15;31.20;;;19.50;99.90;;;;;;5056519;28;20017;-75
2021/06/27 05:04:49;;;;;;;37.55;30.05;;;19.50;99.90;;;;;;5058624;28;20028;-76
2021/06/27 05:07:14;;;;;;;34.70;28.30;;;19.60;99.90;;;;;;5063551;28;20036;-76
2021/06/27 05:09:40;;;;;;;34.42;29.27;;;19.60;99.90;;;;;;5053119;28;20021;-76
2021/06/27 05:12:06;;;;;;;39.45;32.03;;;19.60;99.90;;;;;;5057663;28;20030;-75
2021/06/27 05:14:32;;;;;;;39.45;31.00;;;19.70;99.90;;;;;;5057560;28;20086;-75
2021/06/27 05:16:58;;;;;;;37.08;29.35;;;19.70;99.90;;;;;;5058780;28;20029;-76
2021/06/27 05:19:24;;;;;;;39.65;30.80;;;19.70;99.90;;;;;;5055985;28;20029;-76
2021/06/27 05:21:49;;;;;;;36.10;28.77;;;19.80;99.90;;;;;;5058280;28;20029;-76
2021/06/27 05:24:15;;;;;;;37.20;28.75;;;19.80;99.90;;;;;;5069058;28;20047;-76
2021/06/27 05:26:41;;;;;;;36.97;28.48;;;19.80;99.90;;;;;;5064680;28;20056;-75
2021/06/27 05:29:06;;;;;;;35.60;26.40;;;19.80;99.90;;;;;;5062623;28;20032;-76
2021/06/27 05:31:35;;;;;;;35.13;27.98;;;19.80;99.90;;;;;;5060782;28;20029;-76
2021/06/27 05:34:01;;;;;;;33.45;28.15;;;19.80;99.90;;;;;;5067608;28;20531;-76
2021/06/27 05:36:26;;;;;;;34.03;27.58;;;19.90;99.90;;;;;;5066591;28;20053;-76
2021/06/27 05:38:52;;;;;;;38.13;30.85;;;19.90;99.90;;;;;;5053296;28;20461;-76
2021/06/27 05:41:18;;;;;;;35.85;29.33;;;19.80;99.90;;;;;;5062465;28;20358;-73
2021/06/27 05:43:43;;;;;;;37.60;27.95;;;19.90;99.90;;;;;;5058589;28;20028;-72
2021/06/27 05:46:09;;;;;;;33.08;27.17;;;19.90;99.90;;;;;;5067609;28;20024;-72
2021/06/27 05:48:34;;;;;;;37.20;28.55;;;19.90;99.90;;;;;;5066178;28;20025;-72
2021/06/27 05:51:00;;;;;;;35.33;27.20;;;20.00;99.90;;;;;;5057180;28;20057;-72
2021/06/27 05:53:25;;;;;;;33.28;26.67;;;20.00;99.90;;;;;;5062622;28;20045;-71
2021/06/27 05:56:09;;;;;;;35.42;29.42;;;20.00;99.90;;;;;;5060353;28;20111;-72
2021/06/27 05:58:37;;;;;;;34.53;28.88;;;20.10;99.90;;;;;;5063728;28;20178;-73
2021/06/27 06:01:03;;;;;;;32.80;25.98;;;20.10;99.90;;;;;;5064157;28;20533;-72
2021/06/27 06:03:29;;;;;;;36.53;29.55;;;20.10;99.90;;;;;;5057808;28;20025;-72
2021/06/27 06:05:55;;;;;;;35.83;29.08;;;20.10;99.90;;;;;;5065395;28;20047;-71
2021/06/27 06:08:20;;;;;;;28.67;24.17;;;20.10;99.90;;;;;;5063632;28;20032;-71
2021/06/27 06:10:46;;;;;;;34.95;25.35;;;20.10;99.90;;;;;;5062337;28;20039;-73
2021/06/27 06:13:11;;;;;;;32.75;25.65;;;20.10;99.90;;;;;;5062870;28;20024;-73
2021/06/27 06:15:37;;;;;;;31.60;23.70;;;20.10;99.90;;;;;;5061636;28;20031;-72
2021/06/27 06:18:03;;;;;;;32.03;26.73;;;20.20;99.90;;;;;;5055347;28;20110;-77
2021/06/27 06:20:28;;;;;;;31.58;26.35;;;20.20;99.90;;;;;;5061923;28;20029;-77
2021/06/27 06:22:55;;;;;;;33.80;25.38;;;20.20;99.90;;;;;;5068855;28;20028;-75
2021/06/27 06:25:20;;;;;;;29.52;23.50;;;20.30;99.90;;;;;;5059199;28;20118;-74
2021/06/27 06:27:46;;;;;;;33.60;25.80;;;20.30;99.90;;;;;;5060767;28;20441;-75
2021/06/27 06:30:13;;;;;;;31.83;25.52;;;20.40;99.90;;;;;;5061649;28;20374;-75
2021/06/27 06:32:38;;;;;;;38.80;26.65;;;20.50;99.90;;;;;;5061719;28;20083;-74
2021/06/27 06:35:05;;;;;;;29.77;24.95;;;20.70;99.90;;;;;;5062111;28;20028;-75
2021/06/27 06:37:30;;;;;;;31.92;25.35;;;20.70;99.90;;;;;;5065679;28;20427;-75
2021/06/27 06:39:56;;;;;;;28.35;23.75;;;20.80;99.90;;;;;;5057148;28;20021;-75
2021/06/27 06:42:21;;;;;;;28.65;24.58;;;21.00;99.90;;;;;;5065530;28;20048;-74
2021/06/27 06:44:47;;;;;;;24.27;21.63;;;21.10;99.90;;;;;;5063784;28;20420;-74
2021/06/27 06:47:13;;;;;;;28.65;23.60;;;21.20;99.90;;;;;;5062606;28;20799;-74
2021/06/27 06:49:38;;;;;;;28.55;21.65;;;21.40;99.90;;;;;;5049048;28;20453;-74
2021/06/27 06:52:04;;;;;;;23.77;19.98;;;21.50;99.90;;;;;;5057622;28;20028;-74
2021/06/27 06:54:30;;;;;;;26.40;21.67;;;21.60;99.90;;;;;;5061025;28;20036;-75
2021/06/27 06:56:55;;;;;;;27.08;22.48;;;21.80;99.90;;;;;;5057490;28;20025;-74
2021/06/27 06:59:21;;;;;;;28.58;22.27;;;21.90;99.90;;;;;;5061169;28;20393;-74
2021/06/27 07:01:47;;;;;;;24.95;21.23;;;22.00;99.90;;;;;;5067692;28;20036;-74
2021/06/27 07:04:12;;;;;;;26.60;22.48;;;22.20;99.90;;;;;;5059631;28;20024;-75
2021/06/27 07:06:38;;;;;;;24.13;21.55;;;22.30;99.90;;;;;;5061801;28;20032;-75
2021/06/27 07:09:04;;;;;;;24.92;21.08;;;22.40;99.90;;;;;;5052134;28;20400;-75
2021/06/27 07:11:29;;;;;;;30.30;22.25;;;22.50;99.90;;;;;;5056712;28;20021;-74
2021/06/27 07:13:55;;;;;;;26.92;20.83;;;22.60;99.90;;;;;;5063836;28;20496;-74
2021/06/27 07:16:20;;;;;;;24.92;19.85;;;22.80;99.90;;;;;;5063789;28;20025;-76
2021/06/27 07:18:46;;;;;;;20.30;18.02;;;22.90;99.90;;;;;;5060299;28;20032;-74
2021/06/27 07:21:12;;;;;;;21.70;18.73;;;22.90;99.90;;;;;;5063788;28;20033;-75
2021/06/27 07:23:37;;;;;;;21.85;19.10;;;23.00;99.90;;;;;;5065385;28;20120;-76
2021/06/27 07:26:03;;;;;;;18.98;16.55;;;23.10;99.90;;;;;;5057449;28;20126;-75
2021/06/27 07:28:29;;;;;;;20.98;16.23;;;23.20;99.90;;;;;;5056927;28;20029;-74
2021/06/27 07:30:55;;;;;;;22.52;18.17;;;23.10;99.90;;;;;;5063474;28;20070;-75
2021/06/27 07:33:21;;;;;;;19.67;17.67;;;23.10;99.90;;;;;;5063404;28;20020;-76
2021/06/27 07:35:46;;;;;;;18.85;16.33;;;23.10;99.90;;;;;;5053408;28;20040;-76
2021/06/27 07:38:12;;;;;;;22.00;17.98;;;23.20;99.90;;;;;;5059923;28;20025;-76
2021/06/27 07:40:38;;;;;;;26.30;17.35;;;23.30;99.90;;;;;;5055130;28;20059;-74
2021/06/27 07:43:04;;;;;;;19.13;16.60;;;23.20;99.90;;;;;;5048430;28;20403;-76
2021/06/27 07:45:29;;;;;;;21.23;16.35;;;23.30;99.90;;;;;;5067597;28;20107;-76
2021/06/27 07:47:55;;;;;;;17.30;15.10;;;23.20;99.90;;;;;;5060631;28;20037;-76
2021/06/27 07:50:20;;;;;;;20.15;15.50;;;23.30;99.90;;;;;;5068028;28;20047;-76
2021/06/27 07:52:46;;;;;;;19.63;14.50;;;23.40;99.90;;;;;;5058728;28;20063;-76
2021/06/27 07:55:12;;;;;;;18.70;15.32;;;23.40;99.90;;;;;;5059438;28;20052;-76
2021/06/27 07:57:38;;;;;;;18.77;14.40;;;23.60;99.90;;;;;;5067706;28;20455;-76
2021/06/27 08:00:06;;;;;;;16.25;14.63;;;23.60;99.90;;;;;;5050372;28;20032;-76
2021/06/27 08:02:31;;;;;;;14.65;13.10;;;23.70;99.90;;;;;;5061589;28;20474;-75
2021/06/27 08:04:57;;;;;;;13.60;12.23;;;23.90;99.90;;;;;;5061635;28;20024;-75
2021/06/27 08:07:23;;;;;;;16.20;14.45;;;23.90;99.90;;;;;;5061380;28;20603;-75
2021/06/27 08:09:48;;;;;;;15.82;14.13;;;24.00;99.90;;;;;;5057377;28;20024;-75
2021/06/27 08:12:14;;;;;;;15.30;12.65;;;24.10;99.90;;;;;;5061334;28;20147;-75
2021/06/27 08:14:39;;;;;;;13.70;12.27;;;24.20;99.90;;;;;;5058065;28;20025;-75
2021/06/27 08:17:06;;;;;;;14.32;12.88;;;24.20;99.90;;;;;;5050035;28;20100;-75
2021/06/27 08:19:32;;;;;;;12.95;11.65;;;24.40;99.90;;;;;;5048954;28;20020;-74
2021/06/27 08:21:58;;;;;;;12.00;10.88;;;24.40;99.90;;;;;;5052814;28;20025;-75
2021/06/27 08:24:23;;;;;;;13.15;11.75;;;24.50;99.90;;;;;;5046898;28;20788;-76
2021/06/27 08:26:50;;;;;;;12.60;11.40;;;24.50;99.90;;;;;;5060959;28;20465;-75
2021/06/27 08:29:16;;;;;;;12.85;11.32;;;24.50;99.90;;;;;;5055928;28;20498;-75
2021/06/27 08:31:42;;;;;;;12.68;11.30;;;24.60;99.90;;;;;;5064494;28;20067;-75
2021/06/27 08:34:07;;;;;;;14.43;11.93;;;24.60;99.90;;;;;;5053858;28;20500;-75
2021/06/27 08:36:33;;;;;;;11.20;10.10;;;24.70;99.90;;;;;;5056335;28;20118;-75
2021/06/27 08:38:59;;;;;;;12.63;11.38;;;24.80;99.90;;;;;;5060827;28;20487;-75
2021/06/27 08:41:24;;;;;;;14.50;10.98;;;24.90;99.90;;;;;;5061617;28;20029;-75
2021/06/27 08:43:50;;;;;;;16.90;12.15;;;25.00;99.90;;;;;;5056638;28;20021;-75
2021/06/27 08:46:16;;;;;;;12.13;10.27;;;25.00;99.90;;;;;;5064171;28;20036;-76
2021/06/27 08:48:44;;;;;;;13.00;11.60;;;25.10;99.90;;;;;;5063938;28;20607;-75
2021/06/27 08:51:11;;;;;;;13.55;11.95;;;25.10;99.90;;;;;;5061841;28;20028;-75
2021/06/27 08:53:39;;;;;;;12.68;10.95;;;25.20;99.90;;;;;;5068712;28;20021;-75
2021/06/27 08:56:07;;;;;;;12.13;10.13;;;25.20;99.90;;;;;;5060453;28;20044;-75
2021/06/27 08:58:44;;;;;;;11.48;9.95;;;25.30;99.90;;;;;;5065232;28;20036;-74
2021/06/27 09:01:24;;;;;;;10.82;9.18;;;25.30;99.90;;;;;;5061719;28;20439;-75
2021/06/27 09:03:51;;;;;;;11.60;10.20;;;25.40;99.90;;;;;;5078381;28;20089;-74
2021/06/27 09:06:23;;;;;;;12.05;8.98;;;25.40;99.90;;;;;;5062308;28;20060;-75
2021/06/27 09:09:08;;;;;;;11.35;9.75;;;25.50;99.90;;;;;;5054449;28;20067;-73
2021/06/27 09:11:34;;;;;;;10.48;9.55;;;25.40;99.90;;;;;;5060300;28;20031;-75
2021/06/27 09:13:59;;;;;;;10.32;9.40;;;25.40;99.90;;;;;;5061218;28;20029;-74
2021/06/27 09:16:25;;;;;;;15.13;11.25;;;25.50;99.90;;;;;;5066377;28;20033;-74
2021/06/27 09:18:52;;;;;;;10.23;9.23;;;25.70;99.90;;;;;;5062354;28;20028;-75
2021/06/27 09:21:19;;;;;;;11.32;9.25;;;25.60;99.90;;;;;;5064506;28;20040;-76
2021/06/27 09:23:47;;;;;;;10.68;8.93;;;25.60;99.90;;;;;;5067412;28;20357;-74
2021/06/27 09:26:26;;;;;;;11.48;10.38;;;25.80;99.90;;;;;;5046384;28;20061;-76
2021/06/27 09:28:51;;;;;;;9.38;8.40;;;25.90;99.90;;;;;;5058372;28;20477;-74
2021/06/27 09:31:33;;;;;;;9.95;9.05;;;26.00;99.90;;;;;;5051309;28;20021;-73
2021/06/27 09:34:00;;;;;;;9.07;8.02;;;26.10;99.90;;;;;;5053004;28;20142;-73
2021/06/27 09:36:26;;;;;;;9.77;8.85;;;26.20;99.90;;;;;;5060279;28;20021;-75
2021/06/27 09:38:53;;;;;;;8.82;7.90;;;26.20;99.90;;;;;;5067264;28;20548;-71
2021/06/27 09:41:33;;;;;;;11.48;8.55;;;26.30;99.90;;;;;;5078414;28;20020;-73
2021/06/27 09:44:04;;;;;;;10.60;8.55;;;26.30;99.90;;;;;;5057841;28;20031;-73
2021/06/27 09:46:46;;;;;;;8.98;8.13;;;26.40;99.90;;;;;;5066237;28;20031;-76
2021/06/27 09:49:17;;;;;;;8.48;7.78;;;26.60;99.90;;;;;;5066336;28;20029;-73
2021/06/27 09:51:57;;;;;;;8.65;7.78;;;26.70;99.90;;;;;;5062535;28;20461;-73
2021/06/27 09:54:25;;;;;;;9.35;8.27;;;26.80;99.90;;;;;;5061414;28;20041;-73
2021/06/27 09:56:51;;;;;;;11.73;8.57;;;26.80;99.90;;;;;;5063130;28;20024;-73
2021/06/27 09:59:22;;;;;;;9.93;9.05;;;26.70;99.90;;;;;;5075735;28;20485;-72
2021/06/27 10:01:48;;;;;;;10.10;9.23;;;26.70;99.90;;;;;;5054708;28;20032;-73
2021/06/27 10:04:35;;;;;;;8.30;7.57;;;26.70;99.90;;;;;;5060664;28;20029;-73
2021/06/27 10:07:04;;;;;;;8.88;7.97;;;26.70;99.90;;;;;;5063091;28;20044;-74
2021/06/27 10:09:33;;;;;;;8.63;7.78;;;26.90;99.90;;;;;;5081306;28;20024;-73
2021/06/27 10:12:07;;;;;;;8.15;7.35;;;26.90;99.90;;;;;;5061968;28;20055;-73
2021/06/27 10:14:58;;;;;;;9.40;8.50;;;27.00;99.90;;;;;;5055278;28;20020;-76
2021/06/27 10:17:28;;;;;;;10.38;8.00;;;27.00;99.90;;;;;;5063252;28;20385;-76
2021/06/27 10:19:55;;;;;;;8.43;7.65;;;27.10;99.90;;;;;;5062409;28;20009;-77
2021/06/27 10:22:26;;;;;;;8.75;7.95;;;27.20;99.90;;;;;;5067215;28;20595;-76
2021/06/27 10:24:53;;;;;;;9.18;8.27;;;27.40;99.90;;;;;;5063970;28;20020;-76
2021/06/27 10:27:19;;;;;;;9.85;8.95;;;27.40;99.90;;;;;;5060478;28;20036;-76
2021/06/27 10:29:48;;;;;;;9.50;8.50;;;27.50;99.90;;;;;;5053073;28;20363;-76
2021/06/27 10:32:15;;;;;;;9.02;8.10;;;27.60;99.90;;;;;;5057185;28;20094;-74
2021/06/27 10:34:41;;;;;;;10.15;9.25;;;27.60;99.90;;;;;;5061121;28;20477;-78
2021/06/27 10:37:12;;;;;;;8.68;7.88;;;27.70;99.90;;;;;;5061175;28;20032;-73
2021/06/27 10:39:38;;;;;;;9.57;8.57;;;27.90;99.90;;;;;;5064850;28;20021;-73
2021/06/27 10:42:07;;;;;;;8.05;7.35;;;28.00;99.90;;;;;;5055516;28;20287;-73
2021/06/27 10:44:38;;;;;;;8.07;7.28;;;28.10;99.90;;;;;;5057142;28;20374;-73
2021/06/27 10:47:06;;;;;;;7.68;6.97;;;28.30;99.90;;;;;;5068860;28;20397;-74
2021/06/27 10:49:34;;;;;;;7.88;7.18;;;28.30;99.90;;;;;;5053555;28;20021;-74
2021/06/27 10:52:07;;;;;;;8.82;7.63;;;28.40;99.90;;;;;;5064313;28;20419;-74
2021/06/27 10:54:34;;;;;;;8.57;7.88;;;28.50;99.90;;;;;;5055240;28;20031;-73
2021/06/27 10:57:04;;;;;;;8.85;8.15;;;28.60;99.00;;;;;;5064029;28;20469;-75
2021/06/27 10:59:39;;;;;;;7.65;6.63;;;28.70;99.90;;;;;;5058422;28;20021;-73
2021/06/27 11:02:13;;;;;;;7.22;6.63;;;28.90;99.30;;;;;;5052100;28;20025;-74
2021/06/27 11:04:39;;;;;;;8.88;7.57;;;29.10;98.10;;;;;;5055325;28;20028;-77
2021/06/27 11:07:04;;;;;;;7.55;6.97;;;29.40;98.80;;;;;;5053621;28;20025;-76
2021/06/27 11:09:30;;;;;;;7.75;7.05;;;29.20;98.40;;;;;;5066630;28;20025;-73
2021/06/27 11:11:57;;;;;;;10.38;6.68;;;29.10;98.80;;;;;;5061921;28;20036;-73
2021/06/27 11:14:24;;;;;;;8.40;7.60;;;29.20;99.10;;;;;;5084382;28;20045;-74
2021/06/27 11:17:07;;;;;;;8.25;7.43;;;29.10;97.20;;;;;;5063612;28;20017;-74
2021/06/27 11:19:38;;;;;;;8.40;7.50;;;29.20;97.80;;;;;;5055392;28;20449;-73
2021/06/27 11:22:16;;;;;;;8.13;7.43;;;29.30;97.60;;;;;;5060461;28;20025;-74
2021/06/27 11:24:42;;;;;;;8.55;7.28;;;29.30;99.90;;;;;;5053737;28;20039;-73
2021/06/27 11:27:33;;;;;;;7.05;6.50;;;29.40;96.20;;;;;;5062300;28;20040;-74
2021/06/27 11:30:00;;;;;;;7.05;6.45;;;29.40;98.20;;;;;;5056413;28;20024;-74
2021/06/27 11:32:25;;;;;;;8.18;7.38;;;29.50;98.90;;;;;;5059763;28;20182;-77
2021/06/27 11:34:56;;;;;;;7.50;6.80;;;29.70;97.50;;;;;;5061771;28;20533;-74
2021/06/27 11:37:22;;;;;;;8.00;6.80;;;29.70;99.00;;;;;;5061092;28;20060;-74
2021/06/27 11:39:50;;;;;;;6.93;6.43;;;30.00;96.30;;;;;;5063302;28;20059;-74
2021/06/27 11:42:28;;;;;;;7.30;6.70;;;29.70;97.00;;;;;;5062789;28;20024;-73
2021/06/27 11:45:09;;;;;;;6.90;6.30;;;29.80;96.60;;;;;;5056962;28;20031;-73
2021/06/27 11:47:37;;;;;;;7.47;6.80;;;30.00;96.00;;;;;;5055498;28;20029;-75
2021/06/27 11:50:34;;;;;;;8.40;6.32;;;30.00;94.40;;;;;;5056838;28;20539;-74
2021/06/27 11:53:05;;;;;;;7.50;6.90;;;29.90;96.00;;;;;;5042897;28;20509;-73
2021/06/27 11:55:32;;;;;;;7.85;7.05;;;29.60;95.30;;;;;;5065088;28;20111;-73
2021/06/27 11:57:58;;;;;;;8.27;6.88;;;29.30;96.40;;;;;;5066269;28;20037;-72
2021/06/27 12:00:41;;;;;;;7.55;6.95;;;29.30;97.70;;;;;;5058929;28;20462;-72
2021/06/27 12:03:19;;;;;;;8.18;7.43;;;29.30;96.60;;;;;;5052310;28;20071;-73
2021/06/27 12:05:54;;;;;;;8.48;7.68;;;29.20;98.10;;;;;;5053624;28;20009;-73
2021/06/27 12:08:22;;;;;;;8.18;7.32;;;29.10;97.90;;;;;;5063480;28;20397;-72
2021/06/27 12:10:51;;;;;;;7.55;6.95;;;29.10;97.30;;;;;;5058915;28;20490;-72
2021/06/27 12:13:17;;;;;;;7.65;7.05;;;29.10;97.40;;;;;;5055553;28;20036;-73
2021/06/27 12:15:48;;;;;;;7.95;7.15;;;29.00;97.50;;;;;;5062698;28;20420;-72
2021/06/27 12:18:14;;;;;;;8.70;8.00;;;29.00;98.60;;;;;;5054345;28;20047;-71
2021/06/27 12:20:46;;;;;;;10.63;8.43;;;29.20;97.80;;;;;;5053733;28;20472;-72
2021/06/27 12:23:32;;;;;;;8.73;7.90;;;29.40;96.30;;;;;;5062827;28;20444;-74
2021/06/27 12:26:10;;;;;;;8.18;7.57;;;29.40;98.30;;;;;;5053285;28;20037;-73
2021/06/27 12:28:36;;;;;;;8.55;7.65;;;29.50;98.00;;;;;;5066241;28;20044;-73
2021/06/27 12:31:31;;;;;;;8.48;7.78;;;29.60;98.30;;;;;;5070926;28;20028;-71
2021/06/27 12:34:05;;;;;;;8.20;7.47;;;29.70;99.20;;;;;;5060632;28;20115;-71